Time;durP1;ratioP1;P1;durP2;ratioP2;P2;SDS_P1;SDS_P2;PMS_P1;PMS_P2;Temp;Humidity;BMP_temperature;BMP_pressure;BME280_temperature;BME280_humidity;BME280_pressure;Samples;Min_cycle;Max_cycle;Signal;HPM_P1;HPM_P2
2023/10/04 00:00:59;;;;;;;2.05;1.48;;;;;;;20.45;56.13;97833.13;10286374;28;20294;-25
2023/10/04 00:06:00;;;;;;;2.17;1.45;;;;;;;20.45;56.00;97828.03;10275838;28;20049;-24
2023/10/04 00:11:02;;;;;;;1.92;1.23;;;;;;;20.43;56.00;97822.91;10286432;28;20543;-25
2023/10/04 00:16:03;;;;;;;2.38;1.58;;;;;;;20.44;55.81;97828.84;10286291;28;20038;-24
2023/10/04 00:21:06;;;;;;;1.45;1.30;;;;;;;20.44;55.89;97837.34;10282437;28;20113;-25
2023/10/04 00:26:07;;;;;;;2.22;1.33;;;;;;;20.44;56.14;97836.47;10276454;28;20042;-24
2023/10/04 00:31:08;;;;;;;2.58;1.25;;;;;;;20.45;55.85;97833.13;10287759;28;20038;-25
2023/10/04 00:36:08;;;;;;;1.40;1.20;;;;;;;20.44;56.14;97831.38;10285885;28;20409;-25
2023/10/04 00:41:11;;;;;;;2.20;1.57;;;;;;;20.44;56.26;97827.16;10284777;28;20109;-24
2023/10/04 00:46:12;;;;;;;1.98;1.30;;;;;;;20.45;56.22;97833.94;10288800;28;20347;-24
2023/10/04 00:51:13;;;;;;;1.55;1.02;;;;;;;20.45;56.10;97828.03;10281941;28;20058;-24
2023/10/04 00:56:16;;;;;;;1.95;1.48;;;;;;;20.44;55.88;97819.53;10278124;28;20031;-25
2023/10/04 01:01:17;;;;;;;2.20;1.45;;;;;;;20.42;55.74;97817.81;10279607;28;20050;-25
2023/10/04 01:06:19;;;;;;;2.47;1.27;;;;;;;20.43;56.07;97809.31;10277212;28;20385;-24
2023/10/04 01:11:22;;;;;;;2.05;1.48;;;;;;;20.42;55.71;97796.63;10287455;28;20065;-25
2023/10/04 01:16:23;;;;;;;1.30;1.15;;;;;;;20.44;56.07;97811.03;10284508;28;20039;-24
2023/10/04 01:21:25;;;;;;;1.85;1.30;;;;;;;20.43;56.16;97810.19;10286646;28;20089;-24
2023/10/04 01:26:27;;;;;;;3.03;1.40;;;;;;;20.44;55.83;97806.81;10285460;28;20026;-25
2023/10/04 01:31:28;;;;;;;1.95;1.30;;;;;;;20.43;55.81;97805.09;10279829;28;20037;-25
2023/10/04 01:36:32;;;;;;;1.30;1.10;;;;;;;20.42;55.98;97805.94;10281295;28;20394;-25
2023/10/04 01:41:37;;;;;;;1.38;1.23;;;;;;;20.42;55.97;97802.53;10286083;28;20043;-24
2023/10/04 01:46:38;;;;;;;2.00;1.40;;;;;;;20.43;55.85;97800.03;10282914;28;20042;-25
2023/10/04 01:51:42;;;;;;;2.45;1.27;;;;;;;20.39;55.96;97792.34;10275195;28;20544;-24
2023/10/04 01:56:42;;;;;;;1.65;1.45;;;;;;;20.41;55.46;97795.75;10276761;28;20038;-25
2023/10/04 02:01:44;;;;;;;2.83;1.50;;;;;;;20.42;55.87;97792.38;10270123;28;20090;-25
2023/10/04 02:06:44;;;;;;;1.70;1.13;;;;;;;20.42;56.06;97790.69;10280707;28;20039;-25
2023/10/04 02:11:45;;;;;;;1.47;1.30;;;;;;;20.42;55.93;97799.16;10296857;28;20033;-25
2023/10/04 02:16:45;;;;;;;1.63;1.03;;;;;;;20.42;55.96;97808.50;10292978;28;20114;-24
2023/10/04 02:21:45;;;;;;;2.17;1.40;;;;;;;20.47;56.39;97803.44;10295609;28;20038;-24
2023/10/04 02:26:46;;;;;;;1.33;1.03;;;;;;;20.52;55.85;97811.97;10294421;28;20796;-25
2023/10/04 02:31:46;;;;;;;1.50;1.27;;;;;;;20.55;55.81;97815.38;10298369;28;20498;-25
2023/10/04 02:36:48;;;;;;;1.37;1.13;;;;;;;20.56;55.96;97814.53;10292172;28;20517;-24
2023/10/04 02:41:48;;;;;;;1.00;0.90;;;;;;;20.56;55.88;97806.91;10297176;28;20045;-25
2023/10/04 02:46:49;;;;;;;1.73;1.50;;;;;;;20.50;55.69;97801.78;10289422;28;20401;-25
2023/10/04 02:51:49;;;;;;;3.30;1.30;;;;;;;20.56;55.92;97814.53;10292736;28;20513;-24
2023/10/04 02:56:52;;;;;;;1.52;1.15;;;;;;;20.57;56.04;97818.78;10293555;28;20426;-25
2023/10/04 03:01:53;;;;;;;1.98;0.93;;;;;;;20.56;56.00;97812.00;10296965;28;20166;-25
2023/10/04 03:06:56;;;;;;;1.40;1.10;;;;;;;20.58;56.14;97809.47;10291222;28;20043;-24
2023/10/04 03:11:58;;;;;;;1.55;1.10;;;;;;;20.57;55.57;97808.59;10294459;28;20046;-23
2023/10/04 03:17:08;;;;;;;2.05;1.10;;;;;;;20.58;55.97;97814.56;10295931;28;20035;-25
2023/10/04 03:22:10;;;;;;;1.55;1.00;;;;;;;20.57;55.97;97808.59;10278316;28;20035;-24
2023/10/04 03:27:12;;;;;;;1.88;1.27;;;;;;;20.57;56.06;97808.59;10281684;28;20030;-24
2023/10/04 03:32:12;;;;;;;1.13;0.90;;;;;;;20.55;56.24;97810.28;10290231;28;20027;-25
2023/10/04 03:37:20;;;;;;;4.35;1.35;;;;;;;20.55;55.98;97817.94;10283306;28;20061;-25
2023/10/04 03:42:23;;;;;;;1.15;1.00;;;;;;;20.56;56.05;97818.78;10284894;28;20097;-25
2023/10/04 03:47:23;;;;;;;1.58;1.00;;;;;;;20.56;56.09;97826.44;10284606;28;20031;-25
2023/10/04 03:52:28;;;;;;;1.23;0.90;;;;;;;20.55;56.16;97830.66;10277937;28;20034;-25
2023/10/04 03:57:29;;;;;;;1.92;1.13;;;;;;;20.56;56.12;97821.34;10277997;28;20030;-25
2023/10/04 04:02:30;;;;;;;1.10;0.88;;;;;;;20.53;55.99;97824.69;10289527;28;20549;-25
2023/10/04 04:07:32;;;;;;;1.42;1.10;;;;;;;20.54;56.33;97823.84;10288295;28;20030;-25
2023/10/04 04:12:34;;;;;;;2.88;1.15;;;;;;;20.54;55.92;97808.59;10286561;28;20046;-24
2023/10/04 04:17:37;;;;;;;1.25;0.93;;;;;;;20.55;56.00;97824.72;10276409;28;20106;-25
2023/10/04 04:22:38;;;;;;;1.67;1.02;;;;;;;20.55;56.15;97829.81;10283615;28;20117;-25
2023/10/04 04:27:38;;;;;;;2.03;1.20;;;;;;;20.55;56.09;97833.19;10286126;28;20058;-24
2023/10/04 04:32:41;;;;;;;1.52;1.08;;;;;;;20.56;55.85;97837.44;10287301;28;20027;-24
2023/10/04 04:37:45;;;;;;;1.35;1.10;;;;;;;20.56;55.64;97841.69;10286212;28;20092;-25
2023/10/04 04:42:47;;;;;;;2.70;1.70;;;;;;;20.36;55.60;97847.41;10288555;28;20039;-24
2023/10/04 04:47:49;;;;;;;3.00;1.60;;;;;;;20.19;55.06;97836.22;10280474;28;20096;-26
2023/10/04 04:52:52;;;;;;;9.35;1.80;;;;;;;20.26;54.72;97835.44;10281586;28;20030;-25
2023/10/04 04:57:53;;;;;;;4.55;1.23;;;;;;;20.44;54.75;97842.44;10278966;28;20162;-26
2023/10/04 05:02:54;;;;;;;7.28;2.30;;;;;;;20.24;54.71;97842.19;10281717;28;20026;-26
2023/10/04 05:07:55;;;;;;;4.65;1.23;;;;;;;20.17;55.80;97845.53;10280541;28;20046;-26
2023/10/04 05:12:56;;;;;;;1.80;1.15;;;;;;;20.36;55.75;97849.97;10281972;28;20081;-26
2023/10/04 05:17:57;;;;;;;5.20;1.80;;;;;;;20.35;55.61;97859.28;10284076;28;20555;-26
2023/10/04 05:22:58;;;;;;;1.63;1.17;;;;;;;20.36;55.56;97860.97;10276084;28;20084;-26
2023/10/04 05:28:11;;;;;;;5.20;1.50;;;;;;;19.79;54.97;97856.88;10283962;28;20027;-27
2023/10/04 05:33:13;;;;;;;2.75;1.00;;;;;;;19.88;55.26;97841.75;10278941;28;20422;-26
2023/10/04 05:38:17;;;;;;;1.92;1.20;;;;;;;20.08;55.05;97846.25;10281853;28;20039;-25
2023/10/04 05:43:18;;;;;;;2.92;1.25;;;;;;;20.14;55.19;97845.47;10277625;28;20019;-25
2023/10/04 05:48:19;;;;;;;1.70;1.00;;;;;;;20.18;54.92;97847.22;10268790;28;20666;-26
2023/10/04 05:53:20;;;;;;;2.50;1.45;;;;;;;20.18;55.02;97835.34;10274257;28;20106;-25
2023/10/04 05:58:21;;;;;;;1.52;1.20;;;;;;;20.21;54.94;97826.91;10273073;28;20026;-25
2023/10/04 06:03:21;;;;;;;2.47;1.48;;;;;;;20.22;55.11;97843.88;10268954;28;20031;-26
2023/10/04 06:08:22;;;;;;;2.97;1.00;;;;;;;20.22;54.99;97844.72;10278294;28;20046;-26
2023/10/04 06:13:22;;;;;;;1.43;1.00;;;;;;;20.24;54.89;97852.34;10278030;28;20039;-26
2023/10/04 06:18:28;;;;;;;3.55;1.10;;;;;;;20.21;54.75;97855.75;10285768;28;20027;-25
2023/10/04 06:23:31;;;;;;;1.23;1.10;;;;;;;20.17;54.86;97840.44;10283318;28;20513;-26
2023/10/04 06:28:32;;;;;;;1.52;1.10;;;;;;;20.22;54.76;97846.41;10284836;28;20406;-25
2023/10/04 06:33:32;;;;;;;2.30;1.10;;;;;;;20.22;54.77;97859.13;10279660;28;20117;-25
2023/10/04 06:38:33;;;;;;;1.10;1.00;;;;;;;20.22;54.51;97854.03;10282840;28;20041;-25
2023/10/04 06:43:35;;;;;;;1.40;1.10;;;;;;;20.20;54.68;97851.50;10279071;28;20286;-25
2023/10/04 06:48:35;;;;;;;1.17;1.00;;;;;;;20.20;54.60;97848.09;10284804;28;20046;-26
2023/10/04 06:53:41;;;;;;;1.77;1.08;;;;;;;20.19;54.85;97854.03;10282464;28;20497;-26
2023/10/04 06:58:41;;;;;;;2.53;1.23;;;;;;;20.17;54.44;97864.16;10278599;28;20430;-25
2023/10/04 07:03:43;;;;;;;1.10;0.83;;;;;;;20.24;54.31;97871.03;10282002;28;20085;-26
2023/10/04 07:08:44;;;;;;;1.50;1.13;;;;;;;20.30;54.21;97878.72;10287415;28;20116;-26
2023/10/04 07:13:44;;;;;;;1.47;1.13;;;;;;;20.35;54.55;97886.41;10275637;28;20485;-26
2023/10/04 07:18:45;;;;;;;2.05;1.15;;;;;;;20.34;54.38;97889.81;10290138;28;20681;-26
2023/10/04 07:23:46;;;;;;;1.48;1.13;;;;;;;20.38;54.55;97888.97;10286776;28;20039;-26
2023/10/04 07:28:46;;;;;;;1.60;1.13;;;;;;;20.36;54.47;97891.50;10290810;28;20031;-26
2023/10/04 07:33:47;;;;;;;1.10;1.00;;;;;;;20.38;54.60;97896.63;10290400;28;20027;-26
2023/10/04 07:38:47;;;;;;;1.73;1.23;;;;;;;20.38;54.61;97900.84;10287117;28;20101;-26
2023/10/04 07:43:47;;;;;;;1.73;1.20;;;;;;;20.39;54.61;97894.94;10286340;28;20720;-26
2023/10/04 07:48:48;;;;;;;1.45;0.82;;;;;;;20.39;54.55;97894.09;10283355;28;20514;-26
2023/10/04 07:53:50;;;;;;;1.67;1.17;;;;;;;20.40;54.74;97898.34;10286444;28;20039;-25
2023/10/04 07:58:50;;;;;;;1.20;1.00;;;;;;;20.39;54.74;97889.84;10288100;28;20081;-26
2023/10/04 08:03:52;;;;;;;1.63;1.00;;;;;;;20.39;54.82;97889.84;10277198;28;20035;-26
2023/10/04 08:08:53;;;;;;;1.10;0.80;;;;;;;20.40;54.84;97896.63;10289142;28;20038;-25
2023/10/04 08:13:53;;;;;;;1.27;0.80;;;;;;;20.40;54.88;97891.53;10288815;28;20043;-26
2023/10/04 08:18:56;;;;;;;1.50;0.90;;;;;;;20.39;54.86;97883.91;10288064;28;20121;-26
2023/10/04 08:24:00;;;;;;;1.55;1.00;;;;;;;20.40;55.13;97883.91;10284928;28;20089;-26
2023/10/04 08:29:00;;;;;;;0.85;0.73;;;;;;;20.38;54.84;97877.13;10288501;28;20407;-26
2023/10/04 08:34:00;;;;;;;1.17;1.00;;;;;;;20.41;54.98;97874.59;10280837;28;20039;-26
2023/10/04 08:39:09;;;;;;;1.20;0.90;;;;;;;20.40;55.03;97863.56;10280500;28;20054;-26
2023/10/04 08:44:11;;;;;;;1.38;1.08;;;;;;;20.38;55.03;97861.00;10293610;28;20035;-26
2023/10/04 08:49:15;;;;;;;1.95;0.90;;;;;;;20.40;55.03;97853.38;10287658;28;20034;-26
2023/10/04 08:54:26;;;;;;;1.10;0.88;;;;;;;20.39;55.02;97841.50;10286984;28;20027;-26
2023/10/04 08:59:27;;;;;;;2.67;1.80;;;;;;;20.39;55.04;97838.97;10280507;28;20034;-26
2023/10/04 09:04:28;;;;;;;1.02;0.75;;;;;;;20.40;54.97;97850.84;10286225;28;20031;-28
2023/10/04 09:09:32;;;;;;;1.08;0.88;;;;;;;20.42;55.17;97852.59;10286178;28;20038;-26
2023/10/04 09:14:33;;;;;;;0.70;0.60;;;;;;;20.37;55.01;97849.13;10286524;28;20042;-26
2023/10/04 09:19:34;;;;;;;1.08;0.88;;;;;;;20.40;55.13;97861.03;10277794;28;20034;-26
2023/10/04 09:24:51;;;;;;;1.17;0.98;;;;;;;20.41;54.88;97856.81;10286306;28;20039;-26
2023/10/04 09:29:54;;;;;;;1.27;0.88;;;;;;;20.42;55.13;97867.00;10286548;28;20030;-26
2023/10/04 09:34:58;;;;;;;0.73;0.55;;;;;;;20.37;55.16;97844.03;10285822;28;20065;-26
2023/10/04 09:40:11;;;;;;;1.17;0.88;;;;;;;20.41;55.14;97861.88;10286814;28;20041;-26
2023/10/04 09:45:12;;;;;;;1.55;1.05;;;;;;;20.40;55.31;97861.03;10285868;28;20046;-26
2023/10/04 09:50:21;;;;;;;1.23;1.00;;;;;;;20.42;55.25;97862.75;10285115;28;20030;-26
2023/10/04 09:55:28;;;;;;;1.08;0.90;;;;;;;20.40;55.38;97861.03;10278157;28;20464;-25
2023/10/04 10:00:30;;;;;;;1.40;0.90;;;;;;;20.40;55.12;97858.47;10281028;28;20030;-27
2023/10/04 10:05:31;;;;;;;1.83;0.70;;;;;;;20.41;55.36;97856.81;10283622;28;20039;-26
2023/10/04 10:10:37;;;;;;;1.38;0.90;;;;;;;20.42;55.53;97855.13;10283899;28;20507;-26
2023/10/04 10:15:38;;;;;;;1.08;0.70;;;;;;;20.40;55.33;97850.84;10284273;28;20030;-26
2023/10/04 10:20:39;;;;;;;1.35;1.00;;;;;;;20.42;55.28;97854.28;10283210;28;20047;-25
2023/10/04 10:25:41;;;;;;;1.77;0.82;;;;;;;20.42;55.24;97855.13;10283704;28;20051;-26
2023/10/04 10:30:43;;;;;;;0.88;0.70;;;;;;;20.42;55.32;97844.94;10287926;28;20046;-26
2023/10/04 10:35:53;;;;;;;1.13;0.80;;;;;;;20.42;55.36;97850.03;10292654;28;20035;-26
2023/10/04 10:40:53;;;;;;;1.38;1.00;;;;;;;20.42;55.55;97844.09;10293312;28;20038;-26
2023/10/04 10:45:53;;;;;;;1.40;0.83;;;;;;;20.42;55.25;97838.16;10292104;28;20035;-26
2023/10/04 10:50:54;;;;;;;1.95;1.10;;;;;;;20.48;59.25;97840.75;10287445;28;20038;-26
2023/10/04 10:55:54;;;;;;;4.43;1.77;;;;;;;20.50;57.88;97842.50;10283070;28;20050;-26
2023/10/04 11:00:56;;;;;;;2.27;1.23;;;;;;;20.45;56.53;97833.13;10291870;28;20034;-26
2023/10/04 11:05:57;;;;;;;1.65;1.25;;;;;;;20.43;55.80;97827.13;10290511;28;20306;-26
2023/10/04 11:10:57;;;;;;;1.00;0.70;;;;;;;20.35;55.57;97810.09;10286580;28;20030;-26
2023/10/04 11:15:57;;;;;;;1.67;1.07;;;;;;;20.42;56.11;97822.06;10288933;28;20035;-25
2023/10/04 11:21:04;;;;;;;5.20;1.30;;;;;;;20.42;56.25;97810.16;10291493;28;20425;-26
2023/10/04 11:26:07;;;;;;;3.03;0.90;;;;;;;20.42;55.34;97816.13;10291005;28;20069;-26
2023/10/04 11:31:07;;;;;;;1.15;0.60;;;;;;;20.42;55.68;97802.53;10284414;28;20046;-26
2023/10/04 11:36:18;;;;;;;1.37;0.70;;;;;;;20.42;55.62;97799.16;10289585;28;20445;-26
2023/10/04 11:41:21;;;;;;;1.48;0.85;;;;;;;20.41;55.42;97790.66;10289814;28;20080;-27
2023/10/04 11:46:23;;;;;;;2.83;0.85;;;;;;;20.42;55.67;97778.81;10288263;28;20058;-26
2023/10/04 11:51:28;;;;;;;3.45;0.90;;;;;;;20.41;55.50;97780.50;10281787;28;20057;-26
2023/10/04 11:56:29;;;;;;;2.08;0.93;;;;;;;20.42;55.65;97777.97;10285725;28;20031;-25
2023/10/04 12:01:29;;;;;;;5.53;1.10;;;;;;;20.42;56.26;97762.69;10285101;28;20039;-26
2023/10/04 12:06:33;;;;;;;2.13;1.37;;;;;;;20.36;56.15;97760.94;10285445;28;20900;-26
2023/10/04 12:11:38;;;;;;;4.75;1.88;;;;;;;20.30;55.56;97755.78;10287439;28;20109;-26
2023/10/04 12:16:41;;;;;;;2.30;0.73;;;;;;;20.36;55.35;97748.22;10271568;28;20059;-27
2023/10/04 12:21:42;;;;;;;2.63;1.20;;;;;;;20.37;55.46;97740.63;10285486;28;20055;-25
2023/10/04 12:26:42;;;;;;;1.35;0.77;;;;;;;20.38;55.53;97732.97;10282210;28;20097;-27
2023/10/04 12:31:43;;;;;;;2.27;1.33;;;;;;;20.36;56.22;97730.41;10288662;28;20042;-26
2023/10/04 12:36:44;;;;;;;5.90;1.92;;;;;;;20.32;55.18;97731.22;10284874;28;20301;-26
2023/10/04 12:41:45;;;;;;;4.95;2.00;;;;;;;20.21;54.14;97732.81;10287760;28;20061;-26
2023/10/04 12:46:47;;;;;;;6.57;1.95;;;;;;;20.18;53.70;97736.19;10282748;28;20414;-26
2023/10/04 12:51:47;;;;;;;4.68;1.83;;;;;;;20.19;53.25;97729.41;10283461;28;20035;-26
2023/10/04 12:56:50;;;;;;;5.85;2.25;;;;;;;20.27;53.28;97730.34;10285895;28;20085;-26
2023/10/04 13:01:55;;;;;;;5.75;2.10;;;;;;;20.27;53.05;97720.16;10280197;28;20034;-26
2023/10/04 13:06:56;;;;;;;2.58;1.45;;;;;;;20.30;53.27;97715.09;10281903;28;20065;-25
2023/10/04 13:11:58;;;;;;;7.57;2.20;;;;;;;20.22;52.93;97702.31;10291125;28;20046;-25
2023/10/04 13:16:58;;;;;;;5.95;2.10;;;;;;;20.24;52.30;97699.78;10283733;28;20570;-25
2023/10/04 13:21:59;;;;;;;3.37;1.53;;;;;;;20.30;53.64;97698.16;10287586;28;20031;-25
2023/10/04 13:27:00;;;;;;;6.38;1.95;;;;;;;20.29;52.83;97699.00;10271686;28;20298;-26
2023/10/04 13:32:02;;;;;;;6.15;2.25;;;;;;;20.23;52.84;97688.75;10273581;28;20035;-25
2023/10/04 13:37:02;;;;;;;4.63;2.03;;;;;;;20.21;51.22;97687.03;10285886;28;20560;-26
2023/10/04 13:42:03;;;;;;;4.97;1.90;;;;;;;20.21;50.59;97677.75;10278704;28;20090;-26
2023/10/04 13:47:05;;;;;;;5.63;1.67;;;;;;;20.18;50.37;97670.06;10280908;28;20035;-25
2023/10/04 13:52:05;;;;;;;5.38;1.60;;;;;;;20.17;51.33;97677.69;10287843;28;20085;-26
2023/10/04 13:57:06;;;;;;;8.47;1.63;;;;;;;20.17;51.20;97677.69;10290951;28;20097;-26
2023/10/04 14:02:08;;;;;;;5.97;2.22;;;;;;;20.14;51.01;97670.03;10289654;28;20445;-26
2023/10/04 14:07:08;;;;;;;3.33;1.90;;;;;;;20.19;50.98;97691.28;10282757;28;20102;-26
2023/10/04 14:12:09;;;;;;;4.10;1.40;;;;;;;20.16;51.37;97686.13;10285132;28;20448;-25
2023/10/04 14:17:12;;;;;;;5.35;2.20;;;;;;;20.17;51.13;97690.41;10289310;28;20331;-26
2023/10/04 14:22:13;;;;;;;5.95;1.88;;;;;;;20.18;51.36;97694.66;10291791;28;20041;-26
2023/10/04 14:27:14;;;;;;;8.88;2.17;;;;;;;20.20;50.92;97693.84;10286354;28;20039;-26
2023/10/04 14:32:14;;;;;;;9.67;1.77;;;;;;;20.12;51.17;97675.13;10284454;28;20035;-27
2023/10/04 14:37:14;;;;;;;2.70;1.70;;;;;;;20.11;49.82;97678.47;10282200;28;20409;-26
2023/10/04 14:42:15;;;;;;;9.40;1.80;;;;;;;20.17;52.06;97662.44;10278186;28;20082;-26
2023/10/04 14:47:15;;;;;;;6.90;1.70;;;;;;;20.22;50.39;97655.69;10287329;28;20457;-25
2023/10/04 14:52:16;;;;;;;6.43;2.40;;;;;;;20.22;50.53;97655.69;10272492;28;20035;-25
2023/10/04 14:57:16;;;;;;;9.40;1.60;;;;;;;20.23;52.19;97654.84;10282304;28;20791;-26
2023/10/04 15:02:17;;;;;;;6.90;1.65;;;;;;;20.29;52.79;97662.53;10278571;28;20081;-25
2023/10/04 15:07:18;;;;;;;2.33;1.67;;;;;;;20.30;52.93;97664.22;10277576;28;20404;-25
2023/10/04 15:12:18;;;;;;;3.50;1.77;;;;;;;20.32;53.03;97672.72;10279139;28;20065;-25
2023/10/04 15:17:18;;;;;;;7.17;1.50;;;;;;;20.33;53.15;97669.38;10284575;28;20034;-26
2023/10/04 15:22:19;;;;;;;3.97;2.07;;;;;;;20.32;53.16;97667.63;10278232;28;20413;-25
2023/10/04 15:27:19;;;;;;;1.50;1.15;;;;;;;20.34;53.00;97676.16;10294179;28;20030;-26
2023/10/04 15:32:20;;;;;;;8.23;2.27;;;;;;;20.33;53.42;97677.00;10289077;28;20675;-25
2023/10/04 15:37:20;;;;;;;6.38;2.20;;;;;;;20.32;53.49;97673.56;10281154;28;20023;-25
2023/10/04 15:42:21;;;;;;;3.27;2.00;;;;;;;20.34;53.64;97666.81;10287307;28;20081;-26
2023/10/04 15:47:21;;;;;;;6.03;2.30;;;;;;;20.35;53.73;97667.66;10285238;28;20031;-26
2023/10/04 15:52:21;;;;;;;15.03;12.17;;;;;;;20.37;53.74;97661.75;10282725;28;20027;-25
2023/10/04 15:57:22;;;;;;;69.37;49.50;;;;;;;20.36;53.59;97674.47;10287925;28;20087;-26
2023/10/04 16:02:22;;;;;;;8.33;7.23;;;;;;;20.32;53.79;97667.63;10282262;28;20026;-27
2023/10/04 16:07:23;;;;;;;20.80;14.37;;;;;;;20.24;53.76;97648.91;10283382;28;20034;-26
2023/10/04 16:12:23;;;;;;;23.20;12.67;;;;;;;20.19;53.58;97648.03;10285952;28;20681;-26
2023/10/04 16:17:24;;;;;;;20.40;8.40;;;;;;;20.06;54.01;97653.84;10288782;28;20286;-26
2023/10/04 16:22:25;;;;;;;10.55;6.53;;;;;;;20.18;54.15;97649.72;10279486;28;20478;-26
2023/10/04 16:27:26;;;;;;;14.07;6.13;;;;;;;20.27;54.02;97652.34;10288482;28;20034;-25
2023/10/04 16:32:27;;;;;;;8.73;6.75;;;;;;;20.31;54.21;97648.13;10285427;28;20181;-26
2023/10/04 16:37:29;;;;;;;13.93;7.53;;;;;;;20.30;54.04;97638.78;10277442;28;20031;-26
2023/10/04 16:42:29;;;;;;;10.38;6.05;;;;;;;20.32;54.00;97647.28;10286441;28;20113;-26
2023/10/04 16:47:30;;;;;;;10.23;6.37;;;;;;;20.31;54.18;97636.28;10281488;28;20086;-26
2023/10/04 16:52:30;;;;;;;8.67;6.53;;;;;;;20.30;54.29;97643.88;10282327;28;20039;-26
2023/10/04 16:57:31;;;;;;;9.27;6.35;;;;;;;20.32;54.35;97660.00;10281146;28;20049;-27
2023/10/04 17:02:32;;;;;;;8.55;5.93;;;;;;;20.31;54.58;97659.16;10287691;28;20045;-27
2023/10/04 17:07:32;;;;;;;7.85;5.50;;;;;;;20.32;54.58;97663.41;10284450;28;20034;-26
2023/10/04 17:12:33;;;;;;;9.23;5.25;;;;;;;20.31;54.52;97676.09;10282683;28;20092;-26
2023/10/04 17:17:33;;;;;;;5.50;4.45;;;;;;;20.32;54.65;97672.72;10272183;28;20046;-25
2023/10/04 17:22:34;;;;;;;7.73;4.30;;;;;;;20.32;54.44;97677.81;10278268;28;20039;-25
2023/10/04 17:27:34;;;;;;;5.03;4.40;;;;;;;20.33;54.49;97662.56;10285793;28;20302;-26
2023/10/04 17:32:35;;;;;;;4.70;3.95;;;;;;;20.31;54.55;97665.94;10280031;28;20030;-26
2023/10/04 17:37:35;;;;;;;4.53;3.53;;;;;;;20.33;54.50;97664.28;10285210;28;20097;-26
2023/10/04 17:42:36;;;;;;;6.03;3.97;;;;;;;20.32;54.40;97683.75;10281110;28;20038;-26
2023/10/04 17:47:38;;;;;;;5.82;4.43;;;;;;;20.31;54.86;97691.38;10283748;28;20069;-26
2023/10/04 17:52:38;;;;;;;10.35;6.78;;;;;;;20.19;55.37;97687.03;10279680;28;20058;-25
2023/10/04 17:57:43;;;;;;;11.02;7.00;;;;;;;20.16;55.35;97678.50;10281417;28;20037;-26
2023/10/04 18:02:43;;;;;;;8.68;6.50;;;;;;;20.09;55.42;97670.00;10272528;28;20059;-26
2023/10/04 18:07:44;;;;;;;9.60;6.70;;;;;;;20.06;55.38;97658.94;10277004;28;20095;-26
2023/10/04 18:12:46;;;;;;;10.40;6.32;;;;;;;20.05;55.50;97667.41;10277183;28;20287;-25
2023/10/04 18:17:46;;;;;;;9.63;6.07;;;;;;;20.02;55.00;97682.59;10279729;28;20117;-26
2023/10/04 18:22:46;;;;;;;8.23;5.23;;;;;;;19.95;55.12;97671.53;10277948;28;20032;-26
2023/10/04 18:27:47;;;;;;;8.60;5.43;;;;;;;19.97;55.03;97685.09;10275182;28;20520;-26
2023/10/04 18:32:50;;;;;;;6.95;4.38;;;;;;;19.98;55.03;97691.91;10281205;28;20453;-26
2023/10/04 18:37:51;;;;;;;5.50;4.43;;;;;;;20.04;54.86;97691.09;10282711;28;20034;-26
2023/10/04 18:42:51;;;;;;;5.32;3.72;;;;;;;20.05;54.99;97697.91;10285125;28;20034;-25
2023/10/04 18:47:51;;;;;;;4.43;3.37;;;;;;;19.99;54.75;97697.81;10276909;28;20051;-25
2023/10/04 18:52:52;;;;;;;4.90;3.57;;;;;;;19.98;54.94;97691.03;10283395;28;20038;-26
2023/10/04 18:57:53;;;;;;;5.38;3.25;;;;;;;20.23;54.73;97687.91;10287520;28;20030;-26
2023/10/04 19:02:53;;;;;;;5.40;3.42;;;;;;;20.34;54.48;97691.41;10280629;28;20046;-26
2023/10/04 19:07:54;;;;;;;3.93;2.60;;;;;;;20.35;54.45;97693.09;10289935;28;20445;-26
2023/10/04 19:12:54;;;;;;;4.77;2.93;;;;;;;20.34;54.45;97688.88;10296383;28;20077;-26
2023/10/04 19:17:55;;;;;;;3.67;2.28;;;;;;;20.34;54.49;97692.25;10287992;28;20042;-25
2023/10/04 19:22:55;;;;;;;2.77;2.20;;;;;;;20.36;54.26;97694.81;10284044;28;20035;-26
2023/10/04 19:27:58;;;;;;;2.78;2.00;;;;;;;20.38;54.40;97688.91;10285263;28;20031;-26
2023/10/04 19:33:01;;;;;;;3.50;1.73;;;;;;;20.43;54.30;97695.72;10289286;28;20026;-26
2023/10/04 19:38:04;;;;;;;3.90;2.13;;;;;;;20.45;54.36;97698.28;10285196;28;20034;-26
2023/10/04 19:43:05;;;;;;;3.17;2.08;;;;;;;20.47;54.32;97696.59;10286533;28;20035;-26
2023/10/04 19:48:06;;;;;;;3.38;2.20;;;;;;;20.43;54.55;97700.81;10281678;28;20027;-26
2023/10/04 19:53:06;;;;;;;2.90;2.10;;;;;;;20.43;54.36;97698.25;10285364;28;20023;-25
2023/10/04 19:58:11;;;;;;;2.35;1.50;;;;;;;20.42;54.55;97699.09;10283508;28;20027;-26
2023/10/04 20:03:11;;;;;;;4.43;2.00;;;;;;;20.42;54.20;97698.25;10281788;28;20041;-26
2023/10/04 20:08:14;;;;;;;3.97;1.80;;;;;;;20.44;54.04;97694.88;10281995;28;20041;-26
2023/10/04 20:13:15;;;;;;;2.88;2.10;;;;;;;20.38;56.58;97692.28;10280028;28;20033;-26
2023/10/04 20:18:16;;;;;;;4.40;2.75;;;;;;;19.94;56.68;97694.41;10281957;28;20050;-26
2023/10/04 20:23:16;;;;;;;5.55;2.95;;;;;;;19.78;56.43;97688.31;10284477;28;20125;-26
2023/10/04 20:28:17;;;;;;;4.75;2.70;;;;;;;19.97;56.58;97679.16;10274693;28;20031;-26
2023/10/04 20:33:19;;;;;;;5.43;2.97;;;;;;;20.16;56.87;97678.50;10279212;28;20035;-25
2023/10/04 20:38:20;;;;;;;6.88;3.58;;;;;;;20.15;57.96;97671.72;10281295;28;20416;-25
2023/10/04 20:43:21;;;;;;;4.28;3.13;;;;;;;20.20;59.00;97677.72;10284146;28;20035;-26
2023/10/04 20:48:22;;;;;;;7.13;3.45;;;;;;;20.21;58.65;97674.31;10277226;28;20471;-26
2023/10/04 20:53:23;;;;;;;4.85;3.35;;;;;;;20.22;58.95;97676.03;10275046;28;20027;-27
2023/10/04 20:58:24;;;;;;;6.03;3.83;;;;;;;20.22;59.17;97676.03;10285477;28;20041;-27
2023/10/04 21:03:26;;;;;;;6.40;3.92;;;;;;;20.22;59.18;97673.47;10272444;28;20437;-25
2023/10/04 21:08:27;;;;;;;5.32;3.30;;;;;;;20.26;58.74;97668.44;10291482;28;20031;-25
2023/10/04 21:13:27;;;;;;;5.15;3.25;;;;;;;20.24;58.99;97666.72;10287257;28;20493;-26
2023/10/04 21:18:28;;;;;;;4.53;3.27;;;;;;;20.25;58.71;97676.91;10283869;28;20054;-26
2023/10/04 21:23:30;;;;;;;6.93;3.73;;;;;;;20.23;59.26;97675.19;10283406;28;20679;-26
2023/10/04 21:28:31;;;;;;;4.78;3.30;;;;;;;20.27;59.12;97675.22;10294381;28;20300;-27
2023/10/04 21:33:33;;;;;;;3.60;3.30;;;;;;;20.27;58.67;97675.22;10287139;28;20026;-26
2023/10/04 21:38:48;;;;;;;5.03;3.70;;;;;;;20.25;58.97;97671.81;10286297;28;20082;-26
2023/10/04 21:44:04;;;;;;;4.57;4.00;;;;;;;20.25;58.96;97671.81;10286511;28;20042;-26
2023/10/04 21:49:10;;;;;;;5.10;4.00;;;;;;;20.23;58.95;97670.09;10285086;28;20458;-26
2023/10/04 21:54:15;;;;;;;4.05;3.25;;;;;;;20.25;59.04;97674.38;10287969;28;20026;-27
2023/10/04 21:59:16;;;;;;;6.07;3.50;;;;;;;20.28;58.73;97681.19;10282964;28;20042;-26
2023/10/04 22:04:17;;;;;;;3.67;3.28;;;;;;;20.25;58.67;97688.78;10285550;28;20042;-26
2023/10/04 22:09:18;;;;;;;4.80;3.08;;;;;;;20.26;58.28;97683.69;10286002;28;20030;-26
2023/10/04 22:14:20;;;;;;;3.33;2.83;;;;;;;20.26;58.59;97687.94;10280621;28;20038;-26
2023/10/04 22:19:20;;;;;;;3.75;3.42;;;;;;;20.24;59.03;97677.75;10283674;28;20041;-26
2023/10/04 22:24:21;;;;;;;4.82;3.30;;;;;;;20.24;58.42;97657.41;10276032;28;20057;-25
2023/10/04 22:29:22;;;;;;;4.23;3.47;;;;;;;20.24;58.67;97654.88;10293885;28;20027;-26
2023/10/04 22:34:22;;;;;;;4.82;3.10;;;;;;;20.23;58.71;97649.75;10286927;28;20668;-26
2023/10/04 22:39:22;;;;;;;3.90;2.80;;;;;;;20.25;58.58;97630.31;10290064;28;20520;-26
2023/10/04 22:44:23;;;;;;;5.27;3.23;;;;;;;20.26;58.49;97637.09;10287437;28;20565;-26
2023/10/04 22:49:23;;;;;;;4.43;3.33;;;;;;;20.25;58.63;97625.22;10296696;28;20329;-27
2023/10/04 22:54:24;;;;;;;4.20;2.77;;;;;;;20.26;58.50;97611.66;10293166;28;20282;-26
2023/10/04 22:59:25;;;;;;;5.25;3.00;;;;;;;20.23;58.39;97607.41;10290694;28;20484;-26
2023/10/04 23:04:26;;;;;;;5.40;3.22;;;;;;;20.21;58.64;97603.13;10290994;28;20469;-25
2023/10/04 23:09:30;;;;;;;3.40;2.70;;;;;;;20.26;58.30;97614.19;10298710;28;20085;-26
2023/10/04 23:14:35;;;;;;;3.28;2.63;;;;;;;20.24;58.52;97608.22;10291637;28;20031;-26
2023/10/04 23:19:45;;;;;;;3.50;2.80;;;;;;;20.25;58.35;97605.69;10284247;28;20097;-25